createdAt,value
2022-08-31T00:01:41.507Z,78.90
2022-08-31T00:04:11.142Z,78.90
2022-08-31T00:06:38.833Z,79.10
2022-08-31T00:09:07.875Z,79.20
2022-08-31T00:11:37.886Z,79.00
2022-08-31T00:14:13.132Z,79.20
2022-08-31T00:16:45.561Z,79.10
2022-08-31T00:19:14.088Z,79.20
2022-08-31T00:21:41.791Z,79.10
2022-08-31T00:24:14.156Z,79.20
2022-08-31T00:26:42.791Z,79.30
2022-08-31T00:29:11.587Z,79.40
2022-08-31T00:31:39.116Z,79.60
2022-08-31T00:34:07.428Z,79.60
2022-08-31T00:36:35.196Z,79.50
2022-08-31T00:39:04.150Z,79.60
2022-08-31T00:41:36.885Z,79.50
2022-08-31T00:44:09.272Z,79.70
2022-08-31T00:46:41.902Z,80.20
2022-08-31T00:49:18.551Z,79.40
2022-08-31T00:52:01.173Z,79.40
2022-08-31T00:54:37.988Z,79.40
2022-08-31T00:57:09.627Z,79.30
2022-08-31T00:59:38.689Z,79.30
2022-08-31T01:02:06.994Z,79.20
2022-08-31T01:04:36.856Z,79.30
2022-08-31T01:07:08.173Z,79.20
2022-08-31T01:09:40.556Z,79.30
2022-08-31T01:12:13.263Z,79.00
2022-08-31T01:14:42.850Z,79.30
2022-08-31T01:17:10.893Z,79.60
2022-08-31T01:20:09.714Z,79.40
2022-08-31T01:23:19.238Z,79.50
2022-08-31T01:25:49.770Z,79.30
2022-08-31T01:28:17.741Z,79.30
2022-08-31T01:30:59.006Z,79.50
2022-08-31T01:33:27.191Z,79.70
2022-08-31T01:35:56.708Z,79.90
2022-08-31T01:38:24.761Z,79.80
2022-08-31T01:40:59.706Z,80.20
2022-08-31T01:43:27.402Z,79.80
2022-08-31T01:45:55.107Z,79.90
2022-08-31T01:48:23.898Z,79.80
2022-08-31T01:50:52.371Z,79.70
2022-08-31T01:53:20.183Z,79.50
2022-08-31T01:55:47.963Z,79.70
2022-08-31T01:58:15.818Z,79.60
2022-08-31T02:00:45.103Z,79.60
2022-08-31T02:03:13.816Z,79.50
2022-08-31T02:05:41.748Z,79.60
2022-08-31T02:08:11.768Z,79.60
2022-08-31T02:10:39.922Z,79.50
2022-08-31T02:13:07.565Z,79.50
2022-08-31T02:15:39.901Z,79.60
2022-08-31T02:18:08.835Z,79.40
2022-08-31T02:20:40.018Z,79.50
2022-08-31T02:23:07.637Z,79.70
2022-08-31T02:25:35.557Z,79.80
2022-08-31T02:28:04.324Z,80.00
2022-08-31T02:30:31.798Z,79.60
2022-08-31T02:32:59.390Z,79.60
2022-08-31T02:35:27.890Z,79.80
2022-08-31T02:37:55.871Z,79.70
2022-08-31T02:40:27.353Z,79.70
2022-08-31T02:42:56.916Z,79.80
2022-08-31T02:45:27.380Z,80.00
2022-08-31T02:48:02.517Z,79.70
2022-08-31T02:50:44.423Z,79.80
2022-08-31T02:53:14.500Z,80.40
2022-08-31T02:55:44.249Z,79.80
2022-08-31T02:58:13.667Z,79.60
2022-08-31T03:00:47.626Z,79.50
2022-08-31T03:03:17.590Z,79.60
2022-08-31T03:05:46.132Z,79.40
2022-08-31T03:08:14.675Z,79.20
2022-08-31T03:10:43.401Z,79.40
2022-08-31T03:13:12.494Z,79.50
2022-08-31T03:15:40.824Z,79.60
2022-08-31T03:18:08.922Z,79.60
2022-08-31T03:20:37.716Z,79.30
2022-08-31T03:23:06.953Z,79.60
2022-08-31T03:25:36.138Z,79.70
2022-08-31T03:28:07.993Z,79.60
2022-08-31T03:30:40.578Z,79.60
2022-08-31T03:33:11.530Z,79.50
2022-08-31T03:35:43.889Z,79.50
2022-08-31T03:38:13.387Z,79.20
2022-08-31T03:40:43.327Z,79.20
2022-08-31T03:43:11.999Z,79.00
2022-08-31T03:45:43.666Z,79.00
2022-08-31T03:48:13.213Z,79.00
2022-08-31T03:50:46.857Z,79.00
2022-08-31T03:53:27.359Z,79.00
2022-08-31T03:56:02.137Z,78.90
2022-08-31T03:58:33.120Z,78.90
2022-08-31T04:01:02.176Z,78.80
2022-08-31T04:04:02.136Z,78.80
2022-08-31T04:07:05.273Z,78.90
2022-08-31T04:09:51.499Z,78.80
2022-08-31T04:12:57.468Z,78.80
2022-08-31T04:15:51.523Z,78.80
2022-08-31T04:18:48.414Z,79.50
2022-08-31T04:21:25.472Z,78.90
2022-08-31T04:23:54.650Z,78.80
2022-08-31T04:26:29.635Z,78.70
2022-08-31T04:28:57.778Z,78.50
2022-08-31T04:31:28.647Z,78.40
2022-08-31T04:33:57.763Z,78.40
2022-08-31T04:36:28.300Z,78.40
2022-08-31T04:38:59.553Z,78.40
2022-08-31T04:41:31.002Z,78.30
2022-08-31T04:44:00.850Z,78.40
2022-08-31T04:46:30.730Z,78.60
2022-08-31T04:48:59.345Z,78.60
2022-08-31T04:51:32.036Z,78.90
2022-08-31T04:53:59.827Z,78.70
2022-08-31T04:56:31.706Z,79.00
2022-08-31T04:59:02.857Z,79.00
2022-08-31T05:01:42.754Z,79.00
2022-08-31T05:04:24.362Z,79.40
2022-08-31T05:06:52.972Z,79.00
2022-08-31T05:09:23.922Z,80.00
2022-08-31T05:11:55.565Z,80.40
2022-08-31T05:14:25.203Z,80.60
2022-08-31T05:17:02.912Z,80.60
2022-08-31T05:19:32.892Z,80.40
2022-08-31T05:22:00.536Z,80.50
2022-08-31T05:24:28.886Z,80.20
2022-08-31T05:26:57.595Z,80.00
2022-08-31T05:29:26.955Z,80.00
2022-08-31T05:32:12.455Z,80.10
2022-08-31T05:34:40.708Z,79.90
2022-08-31T05:37:08.744Z,80.00
2022-08-31T05:39:37.478Z,80.10
2022-08-31T05:42:07.794Z,80.10
2022-08-31T05:44:37.008Z,79.80
2022-08-31T05:47:07.895Z,79.80
2022-08-31T05:49:40.966Z,79.50
2022-08-31T05:52:10.033Z,79.60
2022-08-31T05:54:41.341Z,79.70
2022-08-31T05:57:09.674Z,79.70
2022-08-31T05:59:40.517Z,79.50
2022-08-31T06:02:11.907Z,79.40
2022-08-31T06:04:40.409Z,79.60
2022-08-31T06:07:08.849Z,79.90
2022-08-31T06:09:42.273Z,79.80
2022-08-31T06:12:17.897Z,79.70
2022-08-31T06:14:49.999Z,79.60
2022-08-31T06:17:21.102Z,79.70
2022-08-31T06:19:51.874Z,79.80
2022-08-31T06:22:21.411Z,79.50
2022-08-31T06:24:50.369Z,79.20
2022-08-31T06:27:19.603Z,79.40
2022-08-31T06:29:49.668Z,79.40
2022-08-31T06:32:17.923Z,79.70
2022-08-31T06:34:55.475Z,79.60
2022-08-31T06:38:00.035Z,79.80
2022-08-31T06:40:48.022Z,80.10
2022-08-31T06:43:30.911Z,79.90
2022-08-31T06:46:02.614Z,80.00
2022-08-31T06:48:34.393Z,79.90
2022-08-31T06:51:04.329Z,79.80
2022-08-31T06:53:32.313Z,79.60
2022-08-31T06:56:29.000Z,79.50
2022-08-31T06:59:15.328Z,79.40
2022-08-31T07:02:13.491Z,79.30
2022-08-31T07:04:41.413Z,79.50
2022-08-31T07:07:11.751Z,79.50
2022-08-31T07:09:42.342Z,79.60
2022-08-31T07:12:11.659Z,79.40
2022-08-31T07:14:42.607Z,79.60
2022-08-31T07:17:21.193Z,79.60
2022-08-31T07:19:48.973Z,79.60
2022-08-31T07:22:18.008Z,79.90
2022-08-31T07:24:48.467Z,79.90
2022-08-31T07:27:16.755Z,80.00
2022-08-31T07:29:50.489Z,80.00
2022-08-31T07:32:19.306Z,79.80
2022-08-31T07:34:57.280Z,79.60
2022-08-31T07:37:58.911Z,79.50
2022-08-31T07:40:49.621Z,79.40
2022-08-31T07:43:18.542Z,79.30
2022-08-31T07:45:47.013Z,79.20
2022-08-31T07:48:20.613Z,79.30
2022-08-31T07:51:14.996Z,79.50
2022-08-31T07:54:07.178Z,79.30
2022-08-31T07:56:43.501Z,79.30
2022-08-31T07:59:15.267Z,79.00
2022-08-31T08:01:45.859Z,79.00
2022-08-31T08:04:25.597Z,79.00
2022-08-31T08:07:13.019Z,79.00
2022-08-31T08:10:09.794Z,79.00
2022-08-31T08:13:04.761Z,79.00
2022-08-31T08:16:00.813Z,79.00
2022-08-31T08:19:06.240Z,78.90
2022-08-31T08:21:34.246Z,78.90
2022-08-31T08:24:02.329Z,78.90
2022-08-31T08:27:02.458Z,79.50
2022-08-31T08:29:43.295Z,78.80
2022-08-31T08:32:19.265Z,78.80
2022-08-31T08:34:47.143Z,78.70
2022-08-31T08:37:15.766Z,78.50
2022-08-31T08:39:44.238Z,78.40
2022-08-31T08:42:16.223Z,78.30
2022-08-31T08:44:45.056Z,78.10
2022-08-31T08:47:21.038Z,77.90
2022-08-31T08:49:59.163Z,78.50
2022-08-31T08:52:38.221Z,77.90
2022-08-31T08:55:19.128Z,77.60
2022-08-31T08:57:52.301Z,77.80
2022-08-31T09:00:28.820Z,77.50
2022-08-31T09:03:42.755Z,77.30
2022-08-31T09:06:18.464Z,77.40
2022-08-31T09:09:16.145Z,77.30
2022-08-31T09:12:23.291Z,77.40
2022-08-31T09:15:16.237Z,77.30
2022-08-31T09:17:57.919Z,77.20
2022-08-31T09:20:28.527Z,77.00
2022-08-31T09:22:58.806Z,77.00
2022-08-31T09:25:46.091Z,77.20
2022-08-31T09:28:50.166Z,77.30
2022-08-31T09:31:38.141Z,76.80
2022-08-31T09:34:31.632Z,77.00
2022-08-31T09:37:17.076Z,76.90
2022-08-31T09:39:48.603Z,76.90
2022-08-31T09:42:33.654Z,77.00
2022-08-31T09:45:30.401Z,76.90
2022-08-31T09:48:01.674Z,76.90
2022-08-31T09:50:32.337Z,77.00
2022-08-31T09:53:43.979Z,76.80
2022-08-31T09:56:24.144Z,76.90
2022-08-31T09:59:02.961Z,76.90
2022-08-31T10:01:51.403Z,76.80
2022-08-31T10:04:28.631Z,76.90
2022-08-31T10:07:20.184Z,77.00
2022-08-31T10:10:12.630Z,76.90
2022-08-31T10:13:13.931Z,76.90
2022-08-31T10:16:26.245Z,77.00
2022-08-31T10:19:07.341Z,76.70
2022-08-31T10:22:23.378Z,76.80
2022-08-31T10:25:13.301Z,76.80
2022-08-31T10:27:56.152Z,76.80
2022-08-31T10:30:48.509Z,76.80
2022-08-31T10:33:26.176Z,76.70
2022-08-31T10:35:57.975Z,76.50
2022-08-31T10:38:36.471Z,76.50
2022-08-31T10:41:18.217Z,76.60
2022-08-31T10:43:59.457Z,76.50
2022-08-31T10:46:29.328Z,76.40
2022-08-31T10:48:58.918Z,76.90
2022-08-31T10:51:43.870Z,77.10
2022-08-31T10:54:45.594Z,77.60
2022-08-31T10:57:49.946Z,78.90
2022-08-31T11:00:47.596Z,78.20
2022-08-31T11:03:42.378Z,77.90
2022-08-31T11:06:16.395Z,78.30
2022-08-31T11:09:16.193Z,77.20
2022-08-31T11:12:05.160Z,77.20
2022-08-31T11:14:48.802Z,76.90
2022-08-31T11:17:44.007Z,76.70
2022-08-31T11:20:40.469Z,76.70
2022-08-31T11:23:28.810Z,76.20
2022-08-31T11:26:20.616Z,76.50
2022-08-31T11:28:53.908Z,76.30
2022-08-31T11:31:25.768Z,76.30
2022-08-31T11:34:15.664Z,76.50
2022-08-31T11:36:52.002Z,76.20
2022-08-31T11:39:31.290Z,76.40
2022-08-31T11:41:59.460Z,76.30
2022-08-31T11:44:30.128Z,76.10
2022-08-31T11:47:15.071Z,76.00
2022-08-31T11:49:50.192Z,76.00
2022-08-31T11:52:54.032Z,75.50
2022-08-31T11:55:50.497Z,75.10
2022-08-31T11:58:36.260Z,74.70
2022-08-31T12:01:34.605Z,74.60
2022-08-31T12:04:03.996Z,75.00
2022-08-31T12:06:37.414Z,74.90
2022-08-31T12:09:34.845Z,74.40
2022-08-31T12:12:32.976Z,73.90
2022-08-31T12:16:06.035Z,73.70
2022-08-31T12:18:59.026Z,73.00
2022-08-31T12:21:57.185Z,73.00
2022-08-31T12:24:49.084Z,72.20
2022-08-31T12:27:36.320Z,72.20
2022-08-31T12:30:25.700Z,70.40
2022-08-31T12:33:10.323Z,71.60
2022-08-31T12:35:38.849Z,72.10
2022-08-31T12:38:18.703Z,72.20
2022-08-31T12:40:57.049Z,72.40
2022-08-31T12:43:29.772Z,71.80
2022-08-31T12:46:34.509Z,72.20
2022-08-31T12:49:26.648Z,72.00
2022-08-31T12:52:36.681Z,71.60
2022-08-31T12:55:34.899Z,72.40
2022-08-31T12:58:22.429Z,70.90
2022-08-31T13:00:51.318Z,71.80
2022-08-31T13:03:31.134Z,72.00
2022-08-31T13:06:12.594Z,72.10
2022-08-31T13:08:51.870Z,71.60
2022-08-31T13:11:43.965Z,71.40
2022-08-31T13:14:21.271Z,71.50
2022-08-31T13:16:52.905Z,70.90
2022-08-31T13:19:29.709Z,70.20
2022-08-31T13:22:08.894Z,70.60
2022-08-31T13:24:53.887Z,69.60
2022-08-31T13:27:26.762Z,70.20
2022-08-31T13:30:00.012Z,69.90
2022-08-31T13:32:33.114Z,69.50
2022-08-31T13:35:08.534Z,69.70
2022-08-31T13:37:53.009Z,69.00
2022-08-31T13:40:24.952Z,68.90
2022-08-31T13:42:57.038Z,69.00
2022-08-31T13:45:31.242Z,68.10
2022-08-31T13:48:14.377Z,68.10
2022-08-31T13:50:55.039Z,67.90
2022-08-31T13:53:45.460Z,67.60
2022-08-31T13:56:50.027Z,67.90
2022-08-31T13:59:27.225Z,67.30
2022-08-31T14:02:01.603Z,66.90
2022-08-31T14:04:52.214Z,66.80
2022-08-31T14:07:30.110Z,66.00
2022-08-31T14:10:08.187Z,66.80
2022-08-31T14:13:25.582Z,66.40
2022-08-31T14:16:03.216Z,66.90
2022-08-31T14:19:00.711Z,66.90
2022-08-31T14:21:38.650Z,65.80
2022-08-31T14:24:09.394Z,66.70
2022-08-31T14:26:41.903Z,66.10
2022-08-31T14:29:16.503Z,66.30
2022-08-31T14:31:56.377Z,66.20
2022-08-31T14:34:28.416Z,65.90
2022-08-31T14:37:11.520Z,65.80
2022-08-31T14:39:46.355Z,66.20
2022-08-31T14:42:19.313Z,65.60
2022-08-31T14:44:56.946Z,65.70
2022-08-31T14:47:29.723Z,65.30
2022-08-31T14:49:59.912Z,65.50
2022-08-31T14:52:28.704Z,65.20
2022-08-31T14:55:03.241Z,65.50
2022-08-31T14:57:33.748Z,65.50
2022-08-31T15:00:06.263Z,64.40
2022-08-31T15:02:35.606Z,64.30
2022-08-31T15:05:08.165Z,64.80
2022-08-31T15:07:40.645Z,65.40
2022-08-31T15:10:19.748Z,65.90
2022-08-31T15:12:49.115Z,64.70
2022-08-31T15:15:20.030Z,64.40
2022-08-31T15:17:50.742Z,63.30
2022-08-31T15:20:20.349Z,64.00
2022-08-31T15:22:48.996Z,64.20
2022-08-31T15:25:20.358Z,64.60
2022-08-31T15:27:47.848Z,64.10
2022-08-31T15:30:19.823Z,64.30
2022-08-31T15:32:51.095Z,64.80
2022-08-31T15:35:24.420Z,64.90
2022-08-31T15:38:01.659Z,64.00
2022-08-31T15:40:36.591Z,63.60
2022-08-31T15:43:09.762Z,61.70
2022-08-31T15:45:38.153Z,62.60
2022-08-31T15:48:25.007Z,62.10
2022-08-31T15:51:00.561Z,62.50
2022-08-31T15:53:30.821Z,61.50
2022-08-31T15:56:06.820Z,61.70
2022-08-31T15:58:39.221Z,61.90
2022-08-31T16:01:16.650Z,63.10
2022-08-31T16:03:52.539Z,63.60
2022-08-31T16:06:28.347Z,63.40
2022-08-31T16:08:56.827Z,63.80
2022-08-31T16:11:28.005Z,64.80
2022-08-31T16:14:00.026Z,64.40
2022-08-31T16:16:41.399Z,64.10
2022-08-31T16:19:23.320Z,64.40
2022-08-31T16:22:00.611Z,64.60
2022-08-31T16:24:28.221Z,64.60
2022-08-31T16:26:58.113Z,64.50
2022-08-31T16:29:27.586Z,64.40
2022-08-31T16:31:55.713Z,64.70
2022-08-31T16:34:24.348Z,64.50
2022-08-31T16:36:53.939Z,64.40
2022-08-31T16:39:25.280Z,64.00
2022-08-31T16:41:55.379Z,64.20
2022-08-31T16:44:22.877Z,64.50
2022-08-31T16:46:52.944Z,64.50
2022-08-31T16:49:41.523Z,64.80
2022-08-31T16:52:17.091Z,65.30
2022-08-31T16:54:48.831Z,65.00
2022-08-31T16:57:21.338Z,65.30
2022-08-31T16:59:51.633Z,65.30
2022-08-31T17:02:21.175Z,65.30
2022-08-31T17:04:53.984Z,65.30
2022-08-31T17:07:24.753Z,65.20
2022-08-31T17:10:07.431Z,64.90
2022-08-31T17:12:37.330Z,65.70
2022-08-31T17:15:06.013Z,66.00
2022-08-31T17:17:34.059Z,66.30
2022-08-31T17:20:01.833Z,66.10
2022-08-31T17:22:33.857Z,65.80
2022-08-31T17:25:05.239Z,65.80
2022-08-31T17:27:35.132Z,66.00
2022-08-31T17:30:06.549Z,66.00
2022-08-31T17:32:39.490Z,67.20
2022-08-31T17:35:18.635Z,65.80
2022-08-31T17:37:48.157Z,66.00
2022-08-31T17:40:17.012Z,66.20
2022-08-31T17:42:44.762Z,66.10
2022-08-31T17:45:13.861Z,66.10
2022-08-31T17:47:41.621Z,66.20
2022-08-31T17:50:14.151Z,66.40
2022-08-31T17:52:42.325Z,66.90
2022-08-31T17:55:09.980Z,66.90
2022-08-31T17:57:38.126Z,66.50
2022-08-31T18:00:06.929Z,66.30
2022-08-31T18:02:37.887Z,67.10
2022-08-31T18:05:11.654Z,67.30
2022-08-31T18:07:41.473Z,67.00
2022-08-31T18:10:10.579Z,66.90
2022-08-31T18:12:42.213Z,66.80
2022-08-31T18:15:13.119Z,66.80
2022-08-31T18:17:40.837Z,66.50
2022-08-31T18:20:10.834Z,66.60
2022-08-31T18:22:39.485Z,66.70
2022-08-31T18:25:07.410Z,66.80
2022-08-31T18:27:34.908Z,66.80
2022-08-31T18:30:02.853Z,66.80
2022-08-31T18:32:36.471Z,67.00
2022-08-31T18:35:16.417Z,67.10
2022-08-31T18:37:45.498Z,67.00
2022-08-31T18:40:32.127Z,67.20
2022-08-31T18:43:18.918Z,67.30
2022-08-31T18:45:51.403Z,67.10
2022-08-31T18:48:26.317Z,67.30
2022-08-31T18:50:55.551Z,67.30
2022-08-31T18:53:28.458Z,67.40
2022-08-31T18:56:09.584Z,67.40
2022-08-31T18:58:39.531Z,67.40
2022-08-31T19:01:11.753Z,67.40
2022-08-31T19:03:41.309Z,67.70
2022-08-31T19:06:13.156Z,67.80
2022-08-31T19:08:40.945Z,67.90
2022-08-31T19:11:09.001Z,68.00
2022-08-31T19:13:36.989Z,67.90
2022-08-31T19:16:15.222Z,67.90
2022-08-31T19:18:44.919Z,67.70
2022-08-31T19:21:31.495Z,67.80
2022-08-31T19:24:01.696Z,67.90
2022-08-31T19:26:40.091Z,68.30
2022-08-31T19:29:11.493Z,68.10
2022-08-31T19:31:44.525Z,67.90
2022-08-31T19:34:22.449Z,68.00
2022-08-31T19:36:54.477Z,68.10
2022-08-31T19:39:28.131Z,68.10
2022-08-31T19:42:00.129Z,68.00
2022-08-31T19:44:54.436Z,68.50
2022-08-31T19:47:25.091Z,67.90
2022-08-31T19:49:52.979Z,67.80
2022-08-31T19:52:20.726Z,67.80
2022-08-31T19:54:49.018Z,67.90
2022-08-31T19:57:17.099Z,68.40
2022-08-31T19:59:45.211Z,68.50
2022-08-31T20:07:15.604Z,68.40
2022-08-31T20:09:43.196Z,68.20
2022-08-31T20:12:11.273Z,68.30
2022-08-31T20:14:38.958Z,68.20
2022-08-31T20:17:10.069Z,67.90
2022-08-31T20:19:39.667Z,68.40
2022-08-31T20:22:08.314Z,68.40
2022-08-31T20:24:43.597Z,68.40
2022-08-31T20:27:18.498Z,68.70
2022-08-31T20:29:46.740Z,68.90
2022-08-31T20:32:14.719Z,69.40
2022-08-31T20:34:44.319Z,69.20
2022-08-31T20:37:12.971Z,69.30
2022-08-31T20:39:42.332Z,69.70
2022-08-31T20:42:10.025Z,69.10
2022-08-31T20:44:49.114Z,69.30
2022-08-31T20:47:35.491Z,69.50
2022-08-31T20:50:07.502Z,69.60
2022-08-31T20:52:36.188Z,69.30
2022-08-31T20:55:06.142Z,69.50
2022-08-31T20:57:39.986Z,69.80
2022-08-31T21:00:11.085Z,69.80
2022-08-31T21:02:40.048Z,69.80
2022-08-31T21:07:58.479Z,70.00
2022-08-31T21:10:37.832Z,70.10
2022-08-31T21:13:13.074Z,70.50
2022-08-31T21:15:46.637Z,70.90
2022-08-31T21:18:19.332Z,70.70
2022-08-31T21:20:47.444Z,85.50
2022-08-31T21:23:15.426Z,79.70
2022-08-31T21:25:49.498Z,71.30
2022-08-31T21:28:19.595Z,71.40
2022-08-31T21:30:50.612Z,73.40
2022-08-31T21:33:19.193Z,74.80
2022-08-31T21:35:47.984Z,77.00
2022-08-31T21:38:18.997Z,77.50
2022-08-31T21:40:51.440Z,76.10
2022-08-31T21:43:19.681Z,75.30
2022-08-31T21:45:47.687Z,74.70
2022-08-31T21:48:15.436Z,73.50
2022-08-31T21:50:44.118Z,74.70
2022-08-31T21:53:14.793Z,74.30
2022-08-31T21:55:42.598Z,74.30
2022-08-31T21:58:11.090Z,74.20
2022-08-31T22:00:43.047Z,74.00
2022-08-31T22:03:11.482Z,73.40
2022-08-31T22:05:44.038Z,74.20
2022-08-31T22:08:11.886Z,74.30
2022-08-31T22:10:45.574Z,74.30
2022-08-31T22:13:13.912Z,73.60
2022-08-31T22:15:43.883Z,72.70
2022-08-31T22:18:58.098Z,73.90
2022-08-31T22:20:59.975Z,74.60
2022-08-31T22:23:27.998Z,74.10
2022-08-31T22:25:55.622Z,74.70
2022-08-31T22:28:25.306Z,77.10
2022-08-31T22:30:53.588Z,76.10
2022-08-31T22:33:21.207Z,76.10
2022-08-31T22:35:48.728Z,74.60
2022-08-31T22:38:19.141Z,74.30
2022-08-31T22:40:50.364Z,74.70
2022-08-31T22:43:18.559Z,74.20
2022-08-31T22:45:48.845Z,73.40
2022-08-31T22:48:17.692Z,73.70
2022-08-31T22:50:45.455Z,75.50
2022-08-31T22:53:13.246Z,77.50
2022-08-31T22:55:41.477Z,78.10
2022-08-31T22:58:09.649Z,78.30
2022-08-31T23:00:38.565Z,78.10
2022-08-31T23:03:06.918Z,77.40
2022-08-31T23:05:36.803Z,77.70
2022-08-31T23:08:04.826Z,76.40
2022-08-31T23:10:32.867Z,76.40
2022-08-31T23:13:01.527Z,76.10
2022-08-31T23:15:29.620Z,76.40
2022-08-31T23:17:58.121Z,76.30
2022-08-31T23:20:27.433Z,75.90
2022-08-31T23:22:55.609Z,76.10
2022-08-31T23:25:24.997Z,76.60
2022-08-31T23:28:30.406Z,76.60
2022-08-31T23:30:57.941Z,72.40
2022-08-31T23:33:26.826Z,75.80
2022-08-31T23:35:56.229Z,76.30
2022-08-31T23:38:25.849Z,76.60
2022-08-31T23:40:56.555Z,76.80
2022-08-31T23:43:26.936Z,76.60
2022-08-31T23:46:01.983Z,76.70
2022-08-31T23:48:29.899Z,76.00
2022-08-31T23:50:57.604Z,76.00
2022-08-31T23:53:28.511Z,76.30
2022-08-31T23:55:56.755Z,75.90
2022-08-31T23:58:25.957Z,76.30
